createdAt,value
2023-04-01T00:01:49.118Z,11.40
2023-04-01T00:04:16.897Z,11.90
2023-04-01T00:06:44.139Z,12.20
2023-04-01T00:09:11.455Z,12.90
2023-04-01T00:11:38.426Z,12.10
2023-04-01T00:14:05.643Z,11.30
2023-04-01T00:16:32.750Z,10.70
2023-04-01T00:19:00.806Z,12.50
2023-04-01T00:21:27.881Z,12.30
2023-04-01T00:23:54.793Z,11.20
2023-04-01T00:26:22.727Z,12.30
2023-04-01T00:28:50.648Z,10.60
2023-04-01T00:31:18.113Z,12.00
2023-04-01T00:33:45.613Z,12.00
2023-04-01T00:36:19.740Z,12.20
2023-04-01T00:38:47.796Z,10.50
2023-04-01T00:41:16.941Z,10.40
2023-04-01T00:43:48.780Z,12.20
2023-04-01T00:46:16.194Z,12.40
2023-04-01T00:48:56.535Z,12.60
2023-04-01T00:51:27.316Z,10.40
2023-04-01T00:53:57.400Z,10.40
2023-04-01T00:56:31.910Z,11.10
2023-04-01T00:59:03.800Z,12.00
2023-04-01T01:01:32.716Z,11.80
2023-04-01T01:04:00.649Z,10.40
2023-04-01T01:07:06.954Z,12.80
2023-04-01T01:10:03.829Z,10.30
2023-04-01T01:12:42.294Z,10.30
2023-04-01T01:15:49.741Z,10.30
2023-04-01T01:18:21.721Z,11.30
2023-04-01T01:21:20.954Z,10.20
2023-04-01T01:24:28.817Z,10.20
2023-04-01T01:27:07.968Z,10.20
2023-04-01T01:30:05.464Z,10.10
2023-04-01T01:33:09.730Z,10.00
2023-04-01T01:35:57.882Z,10.00
2023-04-01T01:38:32.666Z,10.00
2023-04-01T01:41:00.545Z,10.00
2023-04-01T01:43:44.451Z,9.90
2023-04-01T01:46:15.930Z,9.90
2023-04-01T01:48:45.011Z,11.70
2023-04-01T01:51:12.133Z,9.80
2023-04-01T01:53:39.656Z,10.70
2023-04-01T01:56:07.976Z,12.10
2023-04-01T01:58:48.935Z,9.80
2023-04-01T02:01:27.695Z,10.60
2023-04-01T02:03:56.584Z,9.90
2023-04-01T02:06:28.932Z,10.30
2023-04-01T02:09:04.078Z,12.20
2023-04-01T02:12:06.986Z,9.80
2023-04-01T02:14:56.557Z,9.80
2023-04-01T02:17:27.600Z,9.70
2023-04-01T02:20:02.425Z,9.70
2023-04-01T02:22:42.658Z,12.00
2023-04-01T02:25:14.794Z,9.70
2023-04-01T02:27:44.950Z,11.60
2023-04-01T02:30:14.578Z,11.10
2023-04-01T02:32:42.485Z,9.70
2023-04-01T02:35:17.151Z,10.50
2023-04-01T02:37:46.159Z,9.70
2023-04-01T02:40:16.268Z,9.70
2023-04-01T02:42:43.340Z,11.10
2023-04-01T02:45:11.713Z,12.50
2023-04-01T02:47:38.776Z,9.60
2023-04-01T02:50:07.236Z,12.50
2023-04-01T02:52:34.454Z,9.60
2023-04-01T02:55:02.759Z,12.00
2023-04-01T02:57:30.422Z,12.40
2023-04-01T02:59:57.513Z,9.90
2023-04-01T03:02:24.694Z,9.90
2023-04-01T03:04:51.803Z,11.80
2023-04-01T03:07:18.788Z,9.60
2023-04-01T03:09:46.153Z,9.60
2023-04-01T03:12:13.187Z,10.30
2023-04-01T03:14:40.269Z,9.70
2023-04-01T03:17:07.647Z,11.30
2023-04-01T03:19:34.648Z,11.40
2023-04-01T03:22:01.620Z,12.20
2023-04-01T03:24:28.572Z,12.20
2023-04-01T03:26:55.585Z,11.90
2023-04-01T03:29:22.643Z,10.50
2023-04-01T03:31:49.559Z,11.70
2023-04-01T03:34:16.520Z,10.20
2023-04-01T03:36:43.530Z,9.80
2023-04-01T03:39:10.510Z,11.50
2023-04-01T03:41:39.335Z,11.80
2023-04-01T03:44:06.592Z,11.80
2023-04-01T03:46:33.557Z,12.20
2023-04-01T03:49:00.623Z,12.10
2023-04-01T03:51:27.761Z,9.60
2023-04-01T03:53:54.723Z,9.60
2023-04-01T03:56:21.717Z,12.30
2023-04-01T03:58:48.727Z,12.00
2023-04-01T04:01:22.352Z,11.30
2023-04-01T04:03:51.100Z,12.30
2023-04-01T04:06:19.996Z,10.30
2023-04-01T04:08:46.988Z,11.60
2023-04-01T04:11:14.158Z,11.90
2023-04-01T04:13:42.059Z,11.60
2023-04-01T04:16:10.769Z,11.40
2023-04-01T04:18:38.440Z,11.20
2023-04-01T04:21:06.096Z,9.50
2023-04-01T04:23:34.557Z,9.50
2023-04-01T04:26:07.768Z,9.50
2023-04-01T04:28:35.550Z,11.00
2023-04-01T04:31:03.037Z,10.20
2023-04-01T04:33:30.339Z,11.30
2023-04-01T04:35:59.142Z,11.30
2023-04-01T04:38:27.195Z,11.30
2023-04-01T04:40:54.373Z,10.90
2023-04-01T04:43:21.407Z,11.70
2023-04-01T04:45:48.355Z,11.90
2023-04-01T04:48:21.152Z,10.20
2023-04-01T04:50:51.049Z,11.00
2023-04-01T04:53:20.366Z,12.00
2023-04-01T04:55:50.113Z,10.50
2023-04-01T04:58:17.787Z,11.00
2023-04-01T05:00:45.085Z,9.60
2023-04-01T05:03:12.967Z,11.90
2023-04-01T05:05:40.283Z,11.30
2023-04-01T05:08:07.553Z,9.60
2023-04-01T05:10:34.506Z,11.50
2023-04-01T05:13:01.422Z,10.60
2023-04-01T05:15:28.311Z,9.60
2023-04-01T05:17:55.363Z,9.60
2023-04-01T05:20:22.327Z,11.50
2023-04-01T05:22:49.822Z,9.70
2023-04-01T05:25:16.881Z,10.80
2023-04-01T05:27:43.754Z,11.00
2023-04-01T05:30:11.478Z,9.70
2023-04-01T05:32:38.413Z,9.80
2023-04-01T05:35:06.114Z,9.80
2023-04-01T05:37:36.279Z,9.80
2023-04-01T05:40:04.142Z,9.80
2023-04-01T05:42:31.259Z,9.80
2023-04-01T05:44:59.509Z,11.90
2023-04-01T05:47:26.543Z,9.90
2023-04-01T05:49:53.872Z,9.90
2023-04-01T05:52:20.744Z,9.90
2023-04-01T05:54:47.709Z,11.00
2023-04-01T05:57:14.580Z,10.00
2023-04-01T05:59:41.537Z,11.80
2023-04-01T06:02:11.159Z,11.20
2023-04-01T06:04:41.818Z,11.50
2023-04-01T06:07:18.162Z,11.20
2023-04-01T06:09:46.219Z,10.20
2023-04-01T06:12:19.207Z,12.20
2023-04-01T06:15:36.174Z,10.20
2023-04-01T06:19:00.537Z,10.30
2023-04-01T06:21:54.731Z,10.30
2023-04-01T06:24:27.580Z,10.30
2023-04-01T06:27:03.583Z,10.30
2023-04-01T06:30:04.063Z,10.30
2023-04-01T06:32:51.816Z,10.30
2023-04-01T06:35:28.200Z,9.20
2023-04-01T06:38:18.900Z,11.80
2023-04-01T06:41:25.146Z,10.50
2023-04-01T06:44:09.121Z,10.60
2023-04-01T06:46:58.097Z,10.70
2023-04-01T06:50:00.447Z,10.70
2023-04-01T06:52:30.437Z,10.80
2023-04-01T06:55:06.179Z,12.10
2023-04-01T06:57:43.798Z,13.00
2023-04-01T07:00:37.480Z,11.00
2023-04-01T07:03:37.656Z,12.40
2023-04-01T07:06:10.383Z,11.10
2023-04-01T07:08:41.816Z,11.10
2023-04-01T07:11:16.871Z,11.70
2023-04-01T07:13:55.701Z,11.00
2023-04-01T07:16:40.501Z,11.50
2023-04-01T07:19:38.956Z,11.10
2023-04-01T07:22:23.848Z,12.00
2023-04-01T07:24:52.656Z,11.20
2023-04-01T07:27:19.598Z,11.20
2023-04-01T07:29:47.412Z,12.10
2023-04-01T07:32:36.448Z,11.30
2023-04-01T07:35:27.826Z,12.00
2023-04-01T07:38:41.678Z,9.00
2023-04-01T07:41:49.224Z,11.40
2023-04-01T07:44:51.551Z,11.30
2023-04-01T07:47:58.929Z,11.30
2023-04-01T07:51:03.453Z,11.30
2023-04-01T07:54:13.036Z,11.30
2023-04-01T07:56:49.022Z,11.30
2023-04-01T07:59:19.227Z,11.40
2023-04-01T08:02:23.442Z,12.50
2023-04-01T08:04:59.572Z,11.50
2023-04-01T08:08:10.554Z,11.70
2023-04-01T08:10:51.484Z,11.80
2023-04-01T08:14:10.657Z,12.80
2023-04-01T08:17:06.676Z,12.10
2023-04-01T08:19:45.577Z,12.40
2023-04-01T08:22:29.122Z,12.70
2023-04-01T08:25:00.893Z,12.90
2023-04-01T08:27:38.978Z,13.10
2023-04-01T08:30:26.572Z,13.30
2023-04-01T08:33:01.554Z,13.30
2023-04-01T08:35:37.639Z,13.30
2023-04-01T08:38:20.251Z,12.20
2023-04-01T08:41:23.037Z,13.40
2023-04-01T08:44:19.665Z,13.20
2023-04-01T08:47:39.994Z,13.20
2023-04-01T08:51:14.031Z,13.20
2023-04-01T08:54:31.921Z,13.20
2023-04-01T08:57:33.380Z,13.10
2023-04-01T09:00:34.228Z,12.90
2023-04-01T09:03:20.904Z,12.80
2023-04-01T09:06:03.153Z,12.70
2023-04-01T09:08:57.673Z,12.60
2023-04-01T09:12:03.564Z,12.50
2023-04-01T09:14:55.006Z,12.50
2023-04-01T09:17:36.294Z,13.80
2023-04-01T09:20:29.804Z,12.60
2023-04-01T09:23:22.159Z,12.50
2023-04-01T09:26:03.347Z,12.60
2023-04-01T09:29:20.349Z,12.70
2023-04-01T09:32:39.859Z,12.70
2023-04-01T09:35:47.045Z,12.90
2023-04-01T09:38:23.716Z,13.00
2023-04-01T09:41:06.533Z,13.10
2023-04-01T09:43:39.000Z,13.20
2023-04-01T09:46:15.076Z,13.30
2023-04-01T09:49:04.939Z,13.40
2023-04-01T09:52:33.825Z,13.60
2023-04-01T09:55:20.855Z,13.80
2023-04-01T09:58:26.513Z,13.80
2023-04-01T10:01:39.836Z,13.70
2023-04-01T10:04:26.653Z,13.50
2023-04-01T10:08:03.387Z,13.40
2023-04-01T10:11:10.015Z,13.30
2023-04-01T10:14:03.029Z,13.20
2023-04-01T10:17:03.687Z,13.20
2023-04-01T10:20:08.513Z,13.30
2023-04-01T10:23:20.560Z,13.40
2023-04-01T10:26:06.170Z,13.50
2023-04-01T10:29:15.969Z,14.80
2023-04-01T10:32:22.486Z,13.90
2023-04-01T10:35:49.375Z,14.00
2023-04-01T10:39:06.112Z,13.90
2023-04-01T10:42:16.501Z,13.80
2023-04-01T10:45:17.134Z,13.80
2023-04-01T10:48:15.645Z,13.80
2023-04-01T10:51:15.928Z,13.90
2023-04-01T10:54:09.857Z,13.80
2023-04-01T10:57:02.193Z,13.80
2023-04-01T11:00:07.069Z,13.70
2023-04-01T11:03:23.435Z,13.70
2023-04-01T11:06:11.959Z,13.70
2023-04-01T11:09:25.475Z,13.70
2023-04-01T11:12:35.755Z,13.70
2023-04-01T11:15:42.911Z,13.60
2023-04-01T11:18:47.433Z,13.60
2023-04-01T11:21:42.905Z,13.60
2023-04-01T11:24:39.690Z,13.50
2023-04-01T11:27:31.119Z,13.30
2023-04-01T11:30:17.508Z,13.20
2023-04-01T11:33:03.850Z,13.10
2023-04-01T11:36:13.610Z,13.00
2023-04-01T11:39:01.869Z,12.90
2023-04-01T11:41:37.179Z,12.90
2023-04-01T11:44:28.245Z,12.80
2023-04-01T11:47:05.052Z,12.90
2023-04-01T11:49:48.931Z,13.00
2023-04-01T11:52:49.917Z,13.10
2023-04-01T11:55:35.230Z,13.30
2023-04-01T11:58:47.875Z,13.50
2023-04-01T12:02:01.076Z,13.80
2023-04-01T12:04:59.557Z,14.20
2023-04-01T12:08:03.275Z,14.70
2023-04-01T12:10:55.489Z,15.20
2023-04-01T12:13:40.956Z,15.50
2023-04-01T12:16:19.641Z,15.70
2023-04-01T12:19:23.853Z,15.70
2023-04-01T12:21:56.332Z,15.70
2023-04-01T12:24:49.123Z,15.40
2023-04-01T12:27:26.549Z,15.20
2023-04-01T12:30:22.793Z,14.90
2023-04-01T12:33:26.672Z,14.70
2023-04-01T12:36:38.981Z,14.40
2023-04-01T12:40:05.635Z,14.10
2023-04-01T12:43:07.148Z,13.90
2023-04-01T12:45:37.280Z,13.90
2023-04-01T12:49:04.264Z,13.80
2023-04-01T12:52:05.795Z,13.60
2023-04-01T12:54:57.520Z,13.50
2023-04-01T12:57:50.432Z,13.30
2023-04-01T13:00:46.774Z,13.30
2023-04-01T13:03:31.871Z,13.10
2023-04-01T13:06:23.560Z,13.10
2023-04-01T13:09:17.881Z,13.00
2023-04-01T13:11:50.767Z,13.00
2023-04-01T13:14:53.086Z,12.90
2023-04-01T13:17:47.478Z,12.90
2023-04-01T13:20:55.268Z,13.20
2023-04-01T13:24:01.282Z,13.10
2023-04-01T13:26:44.725Z,13.20
2023-04-01T13:30:09.384Z,16.10
2023-04-01T13:32:55.717Z,13.30
2023-04-01T13:35:43.765Z,13.40
2023-04-01T13:39:04.298Z,13.50
2023-04-01T13:42:22.728Z,13.60
2023-04-01T13:45:01.061Z,13.60
2023-04-01T13:47:56.507Z,13.90
2023-04-01T13:51:37.477Z,13.90
2023-04-01T13:54:23.217Z,14.00
2023-04-01T13:57:31.767Z,14.00
2023-04-01T14:00:24.056Z,14.10
2023-04-01T14:03:13.046Z,14.00
2023-04-01T14:05:57.625Z,14.00
2023-04-01T14:08:52.472Z,14.00
2023-04-01T14:11:53.495Z,14.00
2023-04-01T14:14:57.843Z,13.90
2023-04-01T14:17:47.440Z,13.90
2023-04-01T14:20:55.581Z,13.80
2023-04-01T14:23:46.611Z,13.80
2023-04-01T14:26:43.614Z,13.80
2023-04-01T14:29:46.717Z,13.80
2023-04-01T14:33:03.715Z,13.90
2023-04-01T14:36:26.395Z,14.00
2023-04-01T14:39:08.923Z,14.00
2023-04-01T14:41:53.849Z,14.00
2023-04-01T14:44:42.285Z,14.00
2023-04-01T14:47:49.671Z,13.90
2023-04-01T14:50:25.288Z,13.80
2023-04-01T14:53:23.522Z,13.80
2023-04-01T14:56:01.055Z,13.60
2023-04-01T14:58:51.157Z,13.30
2023-04-01T15:02:04.023Z,13.20
2023-04-01T15:04:51.427Z,13.10
2023-04-01T15:07:57.086Z,14.40
2023-04-01T15:10:45.925Z,13.00
2023-04-01T15:13:51.241Z,12.90
2023-04-01T15:17:02.010Z,12.80
2023-04-01T15:19:48.101Z,12.70
2023-04-01T15:22:42.836Z,12.60
2023-04-01T15:25:34.762Z,12.80
2023-04-01T15:28:32.885Z,13.60
2023-04-01T15:31:35.644Z,14.70
2023-04-01T15:34:33.025Z,16.10
2023-04-01T15:37:47.858Z,17.40
2023-04-01T15:40:57.595Z,18.60
2023-04-01T15:43:24.414Z,19.70
2023-04-01T15:46:32.643Z,20.30
2023-04-01T15:49:39.396Z,20.60
2023-04-01T15:52:22.890Z,20.40
2023-04-01T15:55:21.823Z,20.10
2023-04-01T15:58:19.250Z,19.30
2023-04-01T16:00:51.012Z,18.60
2023-04-01T16:03:53.662Z,17.80
2023-04-01T16:06:41.473Z,17.10
2023-04-01T16:09:57.981Z,16.60
2023-04-01T16:12:56.505Z,16.10
2023-04-01T16:15:41.054Z,15.70
2023-04-01T16:18:20.527Z,15.40
2023-04-01T16:21:13.567Z,15.00
2023-04-01T16:23:51.263Z,14.70
2023-04-01T16:26:32.833Z,14.40
2023-04-01T16:29:34.943Z,14.20
2023-04-01T16:32:31.888Z,14.00
2023-04-01T16:35:22.334Z,13.80
2023-04-01T16:38:02.448Z,13.60
2023-04-01T16:41:23.204Z,13.50
2023-04-01T16:43:56.446Z,13.40
2023-04-01T16:46:48.867Z,13.30
2023-04-01T16:49:45.843Z,15.70
2023-04-01T16:52:12.863Z,13.20
2023-04-01T16:55:05.513Z,13.20
2023-04-01T16:58:08.607Z,12.90
2023-04-01T17:00:42.531Z,12.90
2023-04-01T17:03:09.651Z,12.70
2023-04-01T17:05:53.893Z,12.60
2023-04-01T17:08:29.613Z,12.60
2023-04-01T17:11:25.693Z,12.40
2023-04-01T17:14:17.455Z,12.40
2023-04-01T17:17:13.564Z,12.30
2023-04-01T17:20:26.377Z,12.50
2023-04-01T17:23:24.481Z,12.10
2023-04-01T17:26:28.653Z,12.00
2023-04-01T17:29:23.939Z,11.90
2023-04-01T17:32:18.883Z,11.90
2023-04-01T17:35:49.248Z,11.80
2023-04-01T17:38:35.764Z,11.70
2023-04-01T17:41:27.575Z,11.70
2023-04-01T17:44:14.814Z,11.50
2023-04-01T17:47:08.501Z,11.50
2023-04-01T17:49:51.099Z,11.50
2023-04-01T17:52:44.527Z,11.70
2023-04-01T17:55:47.298Z,11.40
2023-04-01T17:58:22.270Z,12.50
2023-04-01T18:01:31.697Z,11.20
2023-04-01T18:04:25.092Z,11.20
2023-04-01T18:07:08.416Z,11.10
2023-04-01T18:09:53.703Z,11.10
2023-04-01T18:13:17.478Z,12.10
2023-04-01T18:16:06.209Z,13.40
2023-04-01T18:18:43.965Z,10.90
2023-04-01T18:21:33.762Z,10.90
2023-04-01T18:25:03.274Z,10.80
2023-04-01T18:28:11.530Z,10.70
2023-04-01T18:30:40.758Z,10.60
2023-04-01T18:33:27.184Z,11.70
2023-04-01T18:36:34.160Z,11.90
2023-04-01T18:39:31.837Z,10.40
2023-04-01T18:42:46.656Z,10.50
2023-04-01T18:45:27.471Z,10.40
2023-04-01T18:48:59.274Z,10.30
2023-04-01T18:51:47.341Z,10.30
2023-04-01T18:54:34.382Z,10.20
2023-04-01T18:57:09.428Z,10.30
2023-04-01T18:59:47.694Z,10.30
2023-04-01T19:02:49.699Z,10.20
2023-04-01T19:05:41.088Z,10.20
2023-04-01T19:08:31.452Z,10.30
2023-04-01T19:11:37.191Z,10.10
2023-04-01T19:14:22.729Z,10.10
2023-04-01T19:17:17.568Z,10.30
2023-04-01T19:20:47.810Z,10.10
2023-04-01T19:23:38.826Z,10.10
2023-04-01T19:26:13.258Z,10.00
2023-04-01T19:29:05.954Z,12.00
2023-04-01T19:32:16.697Z,10.00
2023-04-01T19:35:11.673Z,9.90
2023-04-01T19:37:47.751Z,9.80
2023-04-01T19:40:31.196Z,9.70
2023-04-01T19:43:24.313Z,9.60
2023-04-01T19:46:34.828Z,11.30
2023-04-01T19:49:18.742Z,9.50
2023-04-01T19:51:52.460Z,10.00
2023-04-01T19:54:35.402Z,9.50
2023-04-01T19:57:22.857Z,9.60
2023-04-01T20:00:25.863Z,9.30
2023-04-01T20:03:01.860Z,9.20
2023-04-01T20:06:05.270Z,9.20
2023-04-01T20:09:05.900Z,9.00
2023-04-01T20:12:01.396Z,9.00
2023-04-01T20:14:42.181Z,8.90
2023-04-01T20:17:47.999Z,10.00
2023-04-01T20:20:33.824Z,8.80
2023-04-01T20:23:56.652Z,8.80
2023-04-01T20:26:35.342Z,8.70
2023-04-01T20:29:23.331Z,8.70
2023-04-01T20:32:04.933Z,8.70
2023-04-01T20:35:11.469Z,8.60
2023-04-01T20:38:09.777Z,8.60
2023-04-01T20:40:48.530Z,8.70
2023-04-01T20:43:58.984Z,8.70
2023-04-01T20:46:47.543Z,8.60
2023-04-01T20:50:13.156Z,8.50
2023-04-01T20:53:05.982Z,8.50
2023-04-01T20:55:51.017Z,8.50
2023-04-01T20:59:14.742Z,8.50
2023-04-01T21:02:18.933Z,8.50
2023-04-01T21:05:09.270Z,8.50
2023-04-01T21:07:39.907Z,8.50
2023-04-01T21:10:41.709Z,9.20
2023-04-01T21:13:27.136Z,8.40
2023-04-01T21:16:05.848Z,8.30
2023-04-01T21:19:06.266Z,8.20
2023-04-01T21:22:01.564Z,8.30
2023-04-01T21:24:52.329Z,8.20
2023-04-01T21:27:37.324Z,8.20
2023-04-01T21:30:33.483Z,8.20
2023-04-01T21:33:06.248Z,8.10
2023-04-01T21:35:51.124Z,8.00
2023-04-01T21:38:36.351Z,7.90
2023-04-01T21:41:42.887Z,7.90
2023-04-01T21:44:44.481Z,7.90
2023-04-01T21:47:47.461Z,7.80
2023-04-01T21:50:44.858Z,7.70
2023-04-01T21:53:46.136Z,7.60
2023-04-01T21:56:18.704Z,7.60
2023-04-01T21:59:58.202Z,10.00
2023-04-01T22:02:47.055Z,7.50
2023-04-01T22:05:37.905Z,7.50
2023-04-01T22:08:43.232Z,7.50
2023-04-01T22:11:17.888Z,7.50
2023-04-01T22:14:11.103Z,7.50
2023-04-01T22:16:47.394Z,7.40
2023-04-01T22:19:26.193Z,9.70
2023-04-01T22:22:11.063Z,7.30
2023-04-01T22:24:58.443Z,7.30
2023-04-01T22:27:52.609Z,7.20
2023-04-01T22:30:34.243Z,7.20
2023-04-01T22:33:27.239Z,7.10
2023-04-01T22:36:22.148Z,7.00
2023-04-01T22:39:15.839Z,7.00
2023-04-01T22:42:27.476Z,7.00
2023-04-01T22:45:34.000Z,7.00
2023-04-01T22:48:26.334Z,7.00
2023-04-01T22:51:05.928Z,7.00
2023-04-01T22:54:13.539Z,6.90
2023-04-01T22:56:53.418Z,6.80
2023-04-01T22:59:28.986Z,6.80
2023-04-01T23:02:08.087Z,6.80
2023-04-01T23:04:41.263Z,6.80
2023-04-01T23:08:16.475Z,8.60
2023-04-01T23:10:53.676Z,6.80
2023-04-01T23:13:28.994Z,6.70
2023-04-01T23:15:56.490Z,6.70
2023-04-01T23:19:03.438Z,6.60
2023-04-01T23:21:55.766Z,6.50
2023-04-01T23:24:28.615Z,6.50
2023-04-01T23:27:07.202Z,6.40
2023-04-01T23:29:37.708Z,6.40
2023-04-01T23:32:05.537Z,6.40
2023-04-01T23:34:35.919Z,6.40
2023-04-01T23:37:12.853Z,6.40
2023-04-01T23:39:50.151Z,9.60
2023-04-01T23:42:23.971Z,6.50
2023-04-01T23:44:54.978Z,6.40
2023-04-01T23:47:34.171Z,6.30
2023-04-01T23:50:08.148Z,6.30
2023-04-01T23:52:45.045Z,6.20
2023-04-01T23:55:11.878Z,6.10
2023-04-01T23:57:40.361Z,6.10
